sensor_id;sensor_type;location;lat;lon;timestamp;P1;durP1;ratioP1;P2;durP2;ratioP2
14394;SDS011;7282;49.204;10.652;2023-04-12T00:01:56;5.83;;;4.33;;
14394;SDS011;7282;49.204;10.652;2023-04-12T00:04:23;6.27;;;3.40;;
14394;SDS011;7282;49.204;10.652;2023-04-12T00:06:51;3.63;;;3.30;;
14394;SDS011;7282;49.204;10.652;2023-04-12T00:09:19;6.10;;;3.50;;
14394;SDS011;7282;49.204;10.652;2023-04-12T00:11:46;4.40;;;3.43;;
14394;SDS011;7282;49.204;10.652;2023-04-12T00:14:12;5.13;;;3.63;;
14394;SDS011;7282;49.204;10.652;2023-04-12T00:16:39;8.10;;;4.10;;
14394;SDS011;7282;49.204;10.652;2023-04-12T00:19:06;7.27;;;3.60;;
14394;SDS011;7282;49.204;10.652;2023-04-12T00:21:33;6.37;;;3.20;;
14394;SDS011;7282;49.204;10.652;2023-04-12T00:24:00;5.20;;;3.40;;
14394;SDS011;7282;49.204;10.652;2023-04-12T00:26:27;4.67;;;3.00;;
14394;SDS011;7282;49.204;10.652;2023-04-12T00:28:54;4.93;;;3.33;;
14394;SDS011;7282;49.204;10.652;2023-04-12T00:31:20;8.00;;;3.37;;
14394;SDS011;7282;49.204;10.652;2023-04-12T00:33:47;6.20;;;3.57;;
14394;SDS011;7282;49.204;10.652;2023-04-12T00:36:14;6.20;;;3.20;;
14394;SDS011;7282;49.204;10.652;2023-04-12T00:38:41;6.73;;;3.67;;
14394;SDS011;7282;49.204;10.652;2023-04-12T00:41:08;7.47;;;3.60;;
14394;SDS011;7282;49.204;10.652;2023-04-12T00:43:34;4.97;;;3.70;;
14394;SDS011;7282;49.204;10.652;2023-04-12T00:46:01;9.40;;;3.43;;
14394;SDS011;7282;49.204;10.652;2023-04-12T00:48:28;5.67;;;3.47;;
14394;SDS011;7282;49.204;10.652;2023-04-12T00:50:56;4.60;;;3.40;;
14394;SDS011;7282;49.204;10.652;2023-04-12T00:53:23;4.23;;;3.10;;
14394;SDS011;7282;49.204;10.652;2023-04-12T00:55:49;7.17;;;3.77;;
14394;SDS011;7282;49.204;10.652;2023-04-12T00:58:17;9.20;;;4.20;;
14394;SDS011;7282;49.204;10.652;2023-04-12T01:00:44;9.60;;;3.97;;
14394;SDS011;7282;49.204;10.652;2023-04-12T01:03:12;9.23;;;4.00;;
14394;SDS011;7282;49.204;10.652;2023-04-12T01:05:43;3.97;;;3.23;;
14394;SDS011;7282;49.204;10.652;2023-04-12T01:08:18;5.77;;;3.40;;
14394;SDS011;7282;49.204;10.652;2023-04-12T01:10:56;4.80;;;3.50;;
14394;SDS011;7282;49.204;10.652;2023-04-12T01:13:38;5.47;;;3.30;;
14394;SDS011;7282;49.204;10.652;2023-04-12T01:16:08;5.07;;;3.63;;
14394;SDS011;7282;49.204;10.652;2023-04-12T01:18:39;5.90;;;3.83;;
14394;SDS011;7282;49.204;10.652;2023-04-12T01:21:09;4.63;;;3.47;;
14394;SDS011;7282;49.204;10.652;2023-04-12T01:28:46;3.80;;;3.30;;
14394;SDS011;7282;49.204;10.652;2023-04-12T01:31:15;5.97;;;3.63;;
14394;SDS011;7282;49.204;10.652;2023-04-12T01:33:43;4.77;;;3.30;;
14394;SDS011;7282;49.204;10.652;2023-04-12T01:36:14;4.20;;;3.50;;
14394;SDS011;7282;49.204;10.652;2023-04-12T01:38:42;7.27;;;3.57;;
14394;SDS011;7282;49.204;10.652;2023-04-12T01:41:09;6.73;;;3.67;;
14394;SDS011;7282;49.204;10.652;2023-04-12T01:43:40;5.43;;;3.93;;
14394;SDS011;7282;49.204;10.652;2023-04-12T01:46:04;4.40;;;3.03;;
14394;SDS011;7282;49.204;10.652;2023-04-12T01:48:31;7.03;;;3.30;;
14394;SDS011;7282;49.204;10.652;2023-04-12T01:51:03;6.33;;;3.47;;
14394;SDS011;7282;49.204;10.652;2023-04-12T01:53:38;4.87;;;3.57;;
14394;SDS011;7282;49.204;10.652;2023-04-12T01:56:03;4.23;;;3.47;;
14394;SDS011;7282;49.204;10.652;2023-04-12T01:58:29;5.70;;;3.90;;
14394;SDS011;7282;49.204;10.652;2023-04-12T02:00:57;5.70;;;3.40;;
14394;SDS011;7282;49.204;10.652;2023-04-12T02:03:25;5.23;;;3.40;;
14394;SDS011;7282;49.204;10.652;2023-04-12T02:05:54;6.07;;;3.47;;
14394;SDS011;7282;49.204;10.652;2023-04-12T02:08:22;5.07;;;3.67;;
14394;SDS011;7282;49.204;10.652;2023-04-12T02:10:48;6.30;;;3.43;;
14394;SDS011;7282;49.204;10.652;2023-04-12T02:13:16;5.20;;;3.40;;
14394;SDS011;7282;49.204;10.652;2023-04-12T02:15:44;6.13;;;3.50;;
14394;SDS011;7282;49.204;10.652;2023-04-12T02:18:11;7.33;;;3.87;;
14394;SDS011;7282;49.204;10.652;2023-04-12T02:20:40;6.80;;;3.57;;
14394;SDS011;7282;49.204;10.652;2023-04-12T02:23:06;6.27;;;3.73;;
14394;SDS011;7282;49.204;10.652;2023-04-12T02:25:33;7.00;;;4.30;;
14394;SDS011;7282;49.204;10.652;2023-04-12T02:28:01;7.67;;;3.77;;
14394;SDS011;7282;49.204;10.652;2023-04-12T02:30:27;7.03;;;3.93;;
14394;SDS011;7282;49.204;10.652;2023-04-12T02:32:54;5.43;;;4.10;;
14394;SDS011;7282;49.204;10.652;2023-04-12T02:35:21;3.87;;;3.47;;
14394;SDS011;7282;49.204;10.652;2023-04-12T02:37:47;6.27;;;4.23;;
14394;SDS011;7282;49.204;10.652;2023-04-12T02:40:14;7.10;;;4.13;;
14394;SDS011;7282;49.204;10.652;2023-04-12T02:42:41;8.20;;;5.07;;
14394;SDS011;7282;49.204;10.652;2023-04-12T02:45:08;4.50;;;4.03;;
14394;SDS011;7282;49.204;10.652;2023-04-12T02:47:35;6.23;;;4.40;;
14394;SDS011;7282;49.204;10.652;2023-04-12T02:50:03;6.57;;;4.80;;
14394;SDS011;7282;49.204;10.652;2023-04-12T02:52:30;4.53;;;4.13;;
14394;SDS011;7282;49.204;10.652;2023-04-12T02:54:58;8.07;;;4.87;;
14394;SDS011;7282;49.204;10.652;2023-04-12T02:57:24;9.00;;;5.13;;
14394;SDS011;7282;49.204;10.652;2023-04-12T02:59:54;9.60;;;4.97;;
14394;SDS011;7282;49.204;10.652;2023-04-12T03:02:21;7.27;;;5.23;;
14394;SDS011;7282;49.204;10.652;2023-04-12T03:04:48;7.10;;;5.50;;
14394;SDS011;7282;49.204;10.652;2023-04-12T03:07:18;7.13;;;5.50;;
14394;SDS011;7282;49.204;10.652;2023-04-12T03:09:45;8.17;;;5.47;;
14394;SDS011;7282;49.204;10.652;2023-04-12T03:12:13;9.97;;;5.80;;
14394;SDS011;7282;49.204;10.652;2023-04-12T03:14:41;7.63;;;5.33;;
14394;SDS011;7282;49.204;10.652;2023-04-12T03:17:08;9.00;;;5.60;;
14394;SDS011;7282;49.204;10.652;2023-04-12T03:19:34;9.43;;;5.57;;
14394;SDS011;7282;49.204;10.652;2023-04-12T03:22:04;7.30;;;5.53;;
14394;SDS011;7282;49.204;10.652;2023-04-12T03:24:31;7.87;;;5.93;;
14394;SDS011;7282;49.204;10.652;2023-04-12T03:27:02;10.07;;;5.73;;
14394;SDS011;7282;49.204;10.652;2023-04-12T03:29:30;8.97;;;5.70;;
14394;SDS011;7282;49.204;10.652;2023-04-12T03:31:56;7.17;;;5.20;;
14394;SDS011;7282;49.204;10.652;2023-04-12T03:34:24;8.73;;;5.27;;
14394;SDS011;7282;49.204;10.652;2023-04-12T03:36:53;9.40;;;5.40;;
14394;SDS011;7282;49.204;10.652;2023-04-12T03:39:20;6.43;;;5.30;;
14394;SDS011;7282;49.204;10.652;2023-04-12T03:41:47;5.77;;;5.20;;
14394;SDS011;7282;49.204;10.652;2023-04-12T03:44:14;7.63;;;5.73;;
14394;SDS011;7282;49.204;10.652;2023-04-12T03:46:40;6.43;;;5.47;;
14394;SDS011;7282;49.204;10.652;2023-04-12T03:49:07;7.87;;;5.63;;
14394;SDS011;7282;49.204;10.652;2023-04-12T03:51:34;7.30;;;5.70;;
14394;SDS011;7282;49.204;10.652;2023-04-12T03:54:00;9.07;;;5.67;;
14394;SDS011;7282;49.204;10.652;2023-04-12T03:56:27;8.77;;;6.80;;
14394;SDS011;7282;49.204;10.652;2023-04-12T03:58:54;9.90;;;5.67;;
14394;SDS011;7282;49.204;10.652;2023-04-12T04:01:21;9.53;;;5.73;;
14394;SDS011;7282;49.204;10.652;2023-04-12T04:03:48;7.93;;;5.63;;
14394;SDS011;7282;49.204;10.652;2023-04-12T04:06:15;7.67;;;5.70;;
14394;SDS011;7282;49.204;10.652;2023-04-12T04:08:42;7.00;;;5.23;;
14394;SDS011;7282;49.204;10.652;2023-04-12T04:11:10;6.83;;;5.83;;
14394;SDS011;7282;49.204;10.652;2023-04-12T04:13:37;7.03;;;5.63;;
14394;SDS011;7282;49.204;10.652;2023-04-12T04:16:04;7.23;;;6.13;;
14394;SDS011;7282;49.204;10.652;2023-04-12T04:18:31;8.40;;;6.17;;
14394;SDS011;7282;49.204;10.652;2023-04-12T04:21:00;7.13;;;5.70;;
14394;SDS011;7282;49.204;10.652;2023-04-12T04:23:27;7.63;;;5.67;;
14394;SDS011;7282;49.204;10.652;2023-04-12T04:25:58;8.63;;;5.90;;
14394;SDS011;7282;49.204;10.652;2023-04-12T04:28:25;7.20;;;6.03;;
14394;SDS011;7282;49.204;10.652;2023-04-12T04:30:52;7.27;;;6.07;;
14394;SDS011;7282;49.204;10.652;2023-04-12T04:33:21;8.00;;;6.20;;
14394;SDS011;7282;49.204;10.652;2023-04-12T04:35:48;9.07;;;6.33;;
14394;SDS011;7282;49.204;10.652;2023-04-12T04:38:16;7.70;;;6.33;;
14394;SDS011;7282;49.204;10.652;2023-04-12T04:40:43;10.17;;;6.80;;
14394;SDS011;7282;49.204;10.652;2023-04-12T04:43:11;9.30;;;6.63;;
14394;SDS011;7282;49.204;10.652;2023-04-12T04:45:39;8.87;;;7.03;;
14394;SDS011;7282;49.204;10.652;2023-04-12T04:48:06;9.80;;;7.43;;
14394;SDS011;7282;49.204;10.652;2023-04-12T04:50:32;10.03;;;8.00;;
14394;SDS011;7282;49.204;10.652;2023-04-12T04:52:59;10.03;;;7.50;;
14394;SDS011;7282;49.204;10.652;2023-04-12T04:55:26;11.73;;;8.73;;
14394;SDS011;7282;49.204;10.652;2023-04-12T04:57:54;9.77;;;8.10;;
14394;SDS011;7282;49.204;10.652;2023-04-12T05:00:22;9.47;;;8.23;;
14394;SDS011;7282;49.204;10.652;2023-04-12T05:02:50;15.90;;;9.67;;
14394;SDS011;7282;49.204;10.652;2023-04-12T05:05:17;16.83;;;10.63;;
14394;SDS011;7282;49.204;10.652;2023-04-12T05:07:46;12.63;;;8.97;;
14394;SDS011;7282;49.204;10.652;2023-04-12T05:10:12;12.73;;;9.17;;
14394;SDS011;7282;49.204;10.652;2023-04-12T05:12:39;13.17;;;7.80;;
14394;SDS011;7282;49.204;10.652;2023-04-12T05:15:06;25.73;;;14.50;;
14394;SDS011;7282;49.204;10.652;2023-04-12T05:17:33;42.50;;;23.87;;
14394;SDS011;7282;49.204;10.652;2023-04-12T05:19:59;30.37;;;18.97;;
14394;SDS011;7282;49.204;10.652;2023-04-12T05:22:27;9.40;;;7.90;;
14394;SDS011;7282;49.204;10.652;2023-04-12T05:24:54;7.97;;;7.17;;
14394;SDS011;7282;49.204;10.652;2023-04-12T05:27:21;7.43;;;6.63;;
14394;SDS011;7282;49.204;10.652;2023-04-12T05:29:48;7.63;;;6.40;;
14394;SDS011;7282;49.204;10.652;2023-04-12T05:32:14;9.17;;;5.67;;
14394;SDS011;7282;49.204;10.652;2023-04-12T05:34:41;6.33;;;5.27;;
14394;SDS011;7282;49.204;10.652;2023-04-12T05:37:09;6.87;;;5.93;;
14394;SDS011;7282;49.204;10.652;2023-04-12T05:39:35;6.77;;;5.77;;
14394;SDS011;7282;49.204;10.652;2023-04-12T05:42:02;7.07;;;6.23;;
14394;SDS011;7282;49.204;10.652;2023-04-12T05:44:29;7.37;;;6.00;;
14394;SDS011;7282;49.204;10.652;2023-04-12T05:46:55;7.50;;;6.30;;
14394;SDS011;7282;49.204;10.652;2023-04-12T05:49:22;6.47;;;5.70;;
14394;SDS011;7282;49.204;10.652;2023-04-12T05:51:49;8.27;;;6.40;;
14394;SDS011;7282;49.204;10.652;2023-04-12T05:54:16;8.10;;;7.00;;
14394;SDS011;7282;49.204;10.652;2023-04-12T05:56:44;7.57;;;6.40;;
14394;SDS011;7282;49.204;10.652;2023-04-12T05:59:11;9.30;;;7.57;;
14394;SDS011;7282;49.204;10.652;2023-04-12T06:01:38;8.87;;;7.43;;
14394;SDS011;7282;49.204;10.652;2023-04-12T06:04:07;9.17;;;7.63;;
14394;SDS011;7282;49.204;10.652;2023-04-12T06:06:34;8.93;;;7.63;;
14394;SDS011;7282;49.204;10.652;2023-04-12T06:09:01;9.73;;;8.23;;
14394;SDS011;7282;49.204;10.652;2023-04-12T06:11:29;7.80;;;7.00;;
14394;SDS011;7282;49.204;10.652;2023-04-12T06:13:59;10.43;;;7.37;;
14394;SDS011;7282;49.204;10.652;2023-04-12T06:16:26;9.33;;;7.13;;
14394;SDS011;7282;49.204;10.652;2023-04-12T06:18:53;8.20;;;7.00;;
14394;SDS011;7282;49.204;10.652;2023-04-12T06:21:20;9.37;;;6.70;;
14394;SDS011;7282;49.204;10.652;2023-04-12T06:23:46;8.20;;;7.43;;
14394;SDS011;7282;49.204;10.652;2023-04-12T06:26:13;9.47;;;7.20;;
14394;SDS011;7282;49.204;10.652;2023-04-12T06:28:40;8.67;;;6.83;;
14394;SDS011;7282;49.204;10.652;2023-04-12T06:31:07;6.77;;;6.17;;
14394;SDS011;7282;49.204;10.652;2023-04-12T06:33:34;7.67;;;6.73;;
14394;SDS011;7282;49.204;10.652;2023-04-12T06:36:01;6.80;;;6.00;;
14394;SDS011;7282;49.204;10.652;2023-04-12T06:38:28;6.57;;;5.83;;
14394;SDS011;7282;49.204;10.652;2023-04-12T06:40:55;6.83;;;5.90;;
14394;SDS011;7282;49.204;10.652;2023-04-12T06:43:22;6.57;;;5.97;;
14394;SDS011;7282;49.204;10.652;2023-04-12T06:45:48;6.87;;;6.17;;
14394;SDS011;7282;49.204;10.652;2023-04-12T06:48:15;6.10;;;5.50;;
14394;SDS011;7282;49.204;10.652;2023-04-12T06:50:43;6.73;;;5.90;;
14394;SDS011;7282;49.204;10.652;2023-04-12T06:53:09;6.80;;;5.63;;
14394;SDS011;7282;49.204;10.652;2023-04-12T06:55:38;6.87;;;5.73;;
14394;SDS011;7282;49.204;10.652;2023-04-12T06:58:05;6.40;;;5.80;;
14394;SDS011;7282;49.204;10.652;2023-04-12T07:00:32;6.40;;;5.70;;
14394;SDS011;7282;49.204;10.652;2023-04-12T07:02:58;6.40;;;5.67;;
14394;SDS011;7282;49.204;10.652;2023-04-12T07:05:25;5.73;;;5.13;;
14394;SDS011;7282;49.204;10.652;2023-04-12T07:07:52;6.73;;;5.83;;
14394;SDS011;7282;49.204;10.652;2023-04-12T07:10:18;5.57;;;5.07;;
14394;SDS011;7282;49.204;10.652;2023-04-12T07:12:45;6.23;;;5.63;;
14394;SDS011;7282;49.204;10.652;2023-04-12T07:15:12;7.17;;;5.37;;
14394;SDS011;7282;49.204;10.652;2023-04-12T07:17:38;7.40;;;6.70;;
14394;SDS011;7282;49.204;10.652;2023-04-12T07:20:05;6.70;;;4.93;;
14394;SDS011;7282;49.204;10.652;2023-04-12T07:22:32;5.93;;;5.00;;
14394;SDS011;7282;49.204;10.652;2023-04-12T07:24:59;5.30;;;4.80;;
14394;SDS011;7282;49.204;10.652;2023-04-12T07:27:25;7.40;;;6.10;;
14394;SDS011;7282;49.204;10.652;2023-04-12T07:29:52;6.00;;;5.40;;
14394;SDS011;7282;49.204;10.652;2023-04-12T07:32:19;5.83;;;5.23;;
14394;SDS011;7282;49.204;10.652;2023-04-12T07:34:46;5.47;;;4.97;;
14394;SDS011;7282;49.204;10.652;2023-04-12T07:37:12;5.03;;;4.60;;
14394;SDS011;7282;49.204;10.652;2023-04-12T07:39:39;5.47;;;4.40;;
14394;SDS011;7282;49.204;10.652;2023-04-12T07:42:06;5.20;;;4.70;;
14394;SDS011;7282;49.204;10.652;2023-04-12T07:44:32;4.50;;;4.10;;
14394;SDS011;7282;49.204;10.652;2023-04-12T07:46:59;4.60;;;4.20;;
14394;SDS011;7282;49.204;10.652;2023-04-12T07:49:26;4.07;;;3.67;;
14394;SDS011;7282;49.204;10.652;2023-04-12T07:51:53;3.63;;;3.30;;
14394;SDS011;7282;49.204;10.652;2023-04-12T07:54:19;3.87;;;3.50;;
14394;SDS011;7282;49.204;10.652;2023-04-12T07:56:59;5.00;;;3.43;;
14394;SDS011;7282;49.204;10.652;2023-04-12T07:59:26;4.07;;;3.30;;
14394;SDS011;7282;49.204;10.652;2023-04-12T08:01:52;3.67;;;3.37;;
14394;SDS011;7282;49.204;10.652;2023-04-12T08:04:19;4.10;;;3.73;;
14394;SDS011;7282;49.204;10.652;2023-04-12T08:06:46;3.50;;;3.20;;
14394;SDS011;7282;49.204;10.652;2023-04-12T08:09:13;4.00;;;3.57;;
14394;SDS011;7282;49.204;10.652;2023-04-12T08:11:39;4.50;;;3.93;;
14394;SDS011;7282;49.204;10.652;2023-04-12T08:14:06;3.67;;;3.37;;
14394;SDS011;7282;49.204;10.652;2023-04-12T08:16:33;5.20;;;3.63;;
14394;SDS011;7282;49.204;10.652;2023-04-12T08:18:59;3.53;;;3.30;;
14394;SDS011;7282;49.204;10.652;2023-04-12T08:21:26;5.10;;;3.70;;
14394;SDS011;7282;49.204;10.652;2023-04-12T08:23:55;3.67;;;3.30;;
14394;SDS011;7282;49.204;10.652;2023-04-12T08:26:21;4.47;;;3.57;;
14394;SDS011;7282;49.204;10.652;2023-04-12T08:28:48;3.80;;;3.50;;
14394;SDS011;7282;49.204;10.652;2023-04-12T08:31:15;3.40;;;3.10;;
14394;SDS011;7282;49.204;10.652;2023-04-12T08:33:42;3.70;;;3.37;;
14394;SDS011;7282;49.204;10.652;2023-04-12T08:36:09;4.20;;;3.47;;
14394;SDS011;7282;49.204;10.652;2023-04-12T08:38:36;3.50;;;3.20;;
14394;SDS011;7282;49.204;10.652;2023-04-12T08:41:03;3.30;;;3.00;;
14394;SDS011;7282;49.204;10.652;2023-04-12T08:43:30;3.50;;;3.20;;
14394;SDS011;7282;49.204;10.652;2023-04-12T08:45:58;5.13;;;3.10;;
14394;SDS011;7282;49.204;10.652;2023-04-12T08:48:26;4.43;;;2.80;;
14394;SDS011;7282;49.204;10.652;2023-04-12T08:50:58;3.13;;;2.90;;
14394;SDS011;7282;49.204;10.652;2023-04-12T08:53:27;2.90;;;2.60;;
14394;SDS011;7282;49.204;10.652;2023-04-12T08:55:51;2.80;;;2.50;;
14394;SDS011;7282;49.204;10.652;2023-04-12T08:58:18;2.57;;;2.33;;
14394;SDS011;7282;49.204;10.652;2023-04-12T09:00:45;3.17;;;2.73;;
14394;SDS011;7282;49.204;10.652;2023-04-12T09:03:12;3.10;;;2.80;;
14394;SDS011;7282;49.204;10.652;2023-04-12T09:05:39;3.63;;;2.93;;
14394;SDS011;7282;49.204;10.652;2023-04-12T09:08:05;3.00;;;2.63;;
14394;SDS011;7282;49.204;10.652;2023-04-12T09:10:36;3.43;;;3.13;;
14394;SDS011;7282;49.204;10.652;2023-04-12T09:13:03;4.10;;;3.00;;
14394;SDS011;7282;49.204;10.652;2023-04-12T09:15:30;3.67;;;3.27;;
14394;SDS011;7282;49.204;10.652;2023-04-12T09:18:02;3.40;;;3.10;;
14394;SDS011;7282;49.204;10.652;2023-04-12T09:20:33;3.63;;;3.33;;
14394;SDS011;7282;49.204;10.652;2023-04-12T09:22:57;4.03;;;3.43;;
14394;SDS011;7282;49.204;10.652;2023-04-12T09:25:37;4.30;;;3.90;;
14394;SDS011;7282;49.204;10.652;2023-04-12T09:28:16;4.57;;;4.03;;
14394;SDS011;7282;49.204;10.652;2023-04-12T09:30:39;4.90;;;4.50;;
14394;SDS011;7282;49.204;10.652;2023-04-12T09:33:11;4.60;;;4.20;;
14394;SDS011;7282;49.204;10.652;2023-04-12T09:35:38;4.97;;;4.23;;
14394;SDS011;7282;49.204;10.652;2023-04-12T09:38:12;4.83;;;4.43;;
14394;SDS011;7282;49.204;10.652;2023-04-12T09:40:36;4.30;;;3.90;;
14394;SDS011;7282;49.204;10.652;2023-04-12T09:43:03;3.97;;;3.67;;
14394;SDS011;7282;49.204;10.652;2023-04-12T09:45:32;4.77;;;4.27;;
14394;SDS011;7282;49.204;10.652;2023-04-12T09:47:58;4.63;;;3.90;;
14394;SDS011;7282;49.204;10.652;2023-04-12T09:50:26;6.23;;;5.07;;
14394;SDS011;7282;49.204;10.652;2023-04-12T09:52:58;7.50;;;5.43;;
14394;SDS011;7282;49.204;10.652;2023-04-12T09:55:25;4.93;;;4.43;;
14394;SDS011;7282;49.204;10.652;2023-04-12T09:57:52;4.93;;;4.40;;
14394;SDS011;7282;49.204;10.652;2023-04-12T10:00:24;4.40;;;4.00;;
14394;SDS011;7282;49.204;10.652;2023-04-12T10:02:50;4.40;;;4.00;;
14394;SDS011;7282;49.204;10.652;2023-04-12T10:05:17;5.10;;;4.60;;
14394;SDS011;7282;49.204;10.652;2023-04-12T10:07:44;4.77;;;4.33;;
14394;SDS011;7282;49.204;10.652;2023-04-12T10:10:12;4.23;;;3.70;;
14394;SDS011;7282;49.204;10.652;2023-04-12T10:12:39;4.03;;;3.67;;
14394;SDS011;7282;49.204;10.652;2023-04-12T10:15:07;4.33;;;3.53;;
14394;SDS011;7282;49.204;10.652;2023-04-12T10:17:36;5.03;;;3.53;;
14394;SDS011;7282;49.204;10.652;2023-04-12T10:20:03;3.50;;;3.20;;
14394;SDS011;7282;49.204;10.652;2023-04-12T10:22:30;3.47;;;3.17;;
14394;SDS011;7282;49.204;10.652;2023-04-12T10:24:58;4.63;;;3.57;;
14394;SDS011;7282;49.204;10.652;2023-04-12T10:27:25;4.77;;;3.40;;
14394;SDS011;7282;49.204;10.652;2023-04-12T10:29:52;3.87;;;3.47;;
14394;SDS011;7282;49.204;10.652;2023-04-12T10:32:19;4.67;;;3.93;;
14394;SDS011;7282;49.204;10.652;2023-04-12T10:34:50;5.17;;;3.93;;
14394;SDS011;7282;49.204;10.652;2023-04-12T10:37:17;5.03;;;4.53;;
14394;SDS011;7282;49.204;10.652;2023-04-12T10:39:46;4.83;;;3.70;;
14394;SDS011;7282;49.204;10.652;2023-04-12T10:42:19;4.53;;;4.13;;
14394;SDS011;7282;49.204;10.652;2023-04-12T10:44:48;5.07;;;4.40;;
14394;SDS011;7282;49.204;10.652;2023-04-12T10:47:15;4.23;;;3.83;;
14394;SDS011;7282;49.204;10.652;2023-04-12T10:50:29;4.90;;;4.30;;
14394;SDS011;7282;49.204;10.652;2023-04-12T10:52:11;4.47;;;3.97;;
14394;SDS011;7282;49.204;10.652;2023-04-12T10:54:38;4.73;;;4.33;;
14394;SDS011;7282;49.204;10.652;2023-04-12T10:57:05;4.50;;;4.10;;
14394;SDS011;7282;49.204;10.652;2023-04-12T10:59:50;5.33;;;4.40;;
14394;SDS011;7282;49.204;10.652;2023-04-12T11:02:20;4.50;;;4.10;;
14394;SDS011;7282;49.204;10.652;2023-04-12T11:05:05;4.17;;;3.87;;
14394;SDS011;7282;49.204;10.652;2023-04-12T11:07:43;5.03;;;4.10;;
14394;SDS011;7282;49.204;10.652;2023-04-12T11:10:16;4.83;;;4.33;;
14394;SDS011;7282;49.204;10.652;2023-04-12T11:12:48;4.70;;;4.30;;
14394;SDS011;7282;49.204;10.652;2023-04-12T11:15:15;5.10;;;4.60;;
14394;SDS011;7282;49.204;10.652;2023-04-12T11:17:42;6.07;;;4.97;;
14394;SDS011;7282;49.204;10.652;2023-04-12T11:20:10;5.60;;;5.10;;
14394;SDS011;7282;49.204;10.652;2023-04-12T11:22:40;5.20;;;4.67;;
14394;SDS011;7282;49.204;10.652;2023-04-12T11:25:07;4.93;;;4.53;;
14394;SDS011;7282;49.204;10.652;2023-04-12T11:27:33;5.67;;;4.70;;
14394;SDS011;7282;49.204;10.652;2023-04-12T11:30:02;6.13;;;4.90;;
14394;SDS011;7282;49.204;10.652;2023-04-12T11:32:29;7.63;;;5.93;;
14394;SDS011;7282;49.204;10.652;2023-04-12T11:34:56;9.20;;;8.30;;
14394;SDS011;7282;49.204;10.652;2023-04-12T11:37:23;7.70;;;6.90;;
14394;SDS011;7282;49.204;10.652;2023-04-12T11:39:52;8.17;;;7.10;;
14394;SDS011;7282;49.204;10.652;2023-04-12T11:42:22;7.27;;;6.57;;
14394;SDS011;7282;49.204;10.652;2023-04-12T11:44:49;7.70;;;7.00;;
14394;SDS011;7282;49.204;10.652;2023-04-12T11:47:17;7.63;;;6.80;;
14394;SDS011;7282;49.204;10.652;2023-04-12T11:49:45;7.17;;;6.47;;
14394;SDS011;7282;49.204;10.652;2023-04-12T11:52:12;7.43;;;6.50;;
14394;SDS011;7282;49.204;10.652;2023-04-12T11:54:43;6.67;;;6.07;;
14394;SDS011;7282;49.204;10.652;2023-04-12T11:57:12;8.70;;;6.93;;
14394;SDS011;7282;49.204;10.652;2023-04-12T11:59:39;9.67;;;7.83;;
14394;SDS011;7282;49.204;10.652;2023-04-12T12:02:06;8.83;;;8.00;;
14394;SDS011;7282;49.204;10.652;2023-04-12T12:07:12;8.63;;;7.83;;
14394;SDS011;7282;49.204;10.652;2023-04-12T12:09:39;8.70;;;7.80;;
14394;SDS011;7282;49.204;10.652;2023-04-12T12:12:06;8.07;;;7.37;;
14394;SDS011;7282;49.204;10.652;2023-04-12T12:14:34;8.23;;;7.43;;
14394;SDS011;7282;49.204;10.652;2023-04-12T12:17:01;9.53;;;8.67;;
14394;SDS011;7282;49.204;10.652;2023-04-12T12:19:32;9.60;;;8.60;;
14394;SDS011;7282;49.204;10.652;2023-04-12T12:24:34;9.80;;;8.87;;
14394;SDS011;7282;49.204;10.652;2023-04-12T12:27:01;7.83;;;7.13;;
14394;SDS011;7282;49.204;10.652;2023-04-12T12:29:35;8.40;;;7.60;;
14394;SDS011;7282;49.204;10.652;2023-04-12T12:32:08;8.33;;;7.63;;
14394;SDS011;7282;49.204;10.652;2023-04-12T12:34:31;7.27;;;6.57;;
14394;SDS011;7282;49.204;10.652;2023-04-12T12:37:00;9.23;;;7.57;;
14394;SDS011;7282;49.204;10.652;2023-04-12T12:39:27;7.90;;;7.20;;
14394;SDS011;7282;49.204;10.652;2023-04-12T12:41:54;9.30;;;8.40;;
14394;SDS011;7282;49.204;10.652;2023-04-12T12:44:21;8.27;;;7.50;;
14394;SDS011;7282;49.204;10.652;2023-04-12T12:46:48;7.77;;;7.07;;
14394;SDS011;7282;49.204;10.652;2023-04-12T12:49:16;7.70;;;6.93;;
14394;SDS011;7282;49.204;10.652;2023-04-12T12:51:42;8.70;;;7.80;;
14394;SDS011;7282;49.204;10.652;2023-04-12T12:54:09;9.00;;;7.83;;
14394;SDS011;7282;49.204;10.652;2023-04-12T12:56:36;8.93;;;8.10;;
14394;SDS011;7282;49.204;10.652;2023-04-12T12:59:02;8.70;;;7.90;;
14394;SDS011;7282;49.204;10.652;2023-04-12T13:01:29;8.77;;;7.87;;
14394;SDS011;7282;49.204;10.652;2023-04-12T13:03:56;9.20;;;8.30;;
14394;SDS011;7282;49.204;10.652;2023-04-12T13:06:23;9.57;;;8.63;;
14394;SDS011;7282;49.204;10.652;2023-04-12T13:08:52;10.20;;;9.20;;
14394;SDS011;7282;49.204;10.652;2023-04-12T13:11:20;9.57;;;8.63;;
14394;SDS011;7282;49.204;10.652;2023-04-12T13:13:46;9.67;;;8.60;;
14394;SDS011;7282;49.204;10.652;2023-04-12T13:16:13;10.50;;;9.50;;
14394;SDS011;7282;49.204;10.652;2023-04-12T13:18:41;10.27;;;9.20;;
14394;SDS011;7282;49.204;10.652;2023-04-12T13:21:08;10.03;;;9.13;;
14394;SDS011;7282;49.204;10.652;2023-04-12T13:23:34;10.63;;;9.70;;
14394;SDS011;7282;49.204;10.652;2023-04-12T13:26:01;9.80;;;8.90;;
14394;SDS011;7282;49.204;10.652;2023-04-12T13:28:28;9.63;;;8.80;;
14394;SDS011;7282;49.204;10.652;2023-04-12T13:30:55;8.70;;;7.90;;
14394;SDS011;7282;49.204;10.652;2023-04-12T13:33:22;9.67;;;8.77;;
14394;SDS011;7282;49.204;10.652;2023-04-12T13:35:48;8.73;;;7.93;;
14394;SDS011;7282;49.204;10.652;2023-04-12T13:38:15;8.50;;;7.70;;
14394;SDS011;7282;49.204;10.652;2023-04-12T13:40:42;7.97;;;7.27;;
14394;SDS011;7282;49.204;10.652;2023-04-12T13:43:09;7.87;;;6.90;;
14394;SDS011;7282;49.204;10.652;2023-04-12T13:45:35;7.83;;;7.13;;
14394;SDS011;7282;49.204;10.652;2023-04-12T13:48:02;8.10;;;7.30;;
14394;SDS011;7282;49.204;10.652;2023-04-12T13:50:29;7.73;;;7.03;;
14394;SDS011;7282;49.204;10.652;2023-04-12T13:52:55;7.73;;;6.83;;
14394;SDS011;7282;49.204;10.652;2023-04-12T13:55:22;7.57;;;6.77;;
14394;SDS011;7282;49.204;10.652;2023-04-12T13:57:49;7.73;;;7.03;;
14394;SDS011;7282;49.204;10.652;2023-04-12T14:00:16;6.67;;;6.07;;
14394;SDS011;7282;49.204;10.652;2023-04-12T14:02:43;6.47;;;5.87;;
14394;SDS011;7282;49.204;10.652;2023-04-12T14:05:09;6.70;;;6.10;;
14394;SDS011;7282;49.204;10.652;2023-04-12T14:07:36;7.13;;;6.00;;
14394;SDS011;7282;49.204;10.652;2023-04-12T14:10:03;6.73;;;6.10;;
14394;SDS011;7282;49.204;10.652;2023-04-12T14:12:32;6.67;;;5.97;;
14394;SDS011;7282;49.204;10.652;2023-04-12T14:14:58;8.10;;;5.33;;
14394;SDS011;7282;49.204;10.652;2023-04-12T14:17:25;6.43;;;5.70;;
14394;SDS011;7282;49.204;10.652;2023-04-12T14:19:54;6.30;;;5.40;;
14394;SDS011;7282;49.204;10.652;2023-04-12T14:22:21;6.47;;;5.87;;
14394;SDS011;7282;49.204;10.652;2023-04-12T14:24:47;6.50;;;5.83;;
14394;SDS011;7282;49.204;10.652;2023-04-12T14:27:14;5.23;;;4.83;;
14394;SDS011;7282;49.204;10.652;2023-04-12T14:29:41;4.77;;;4.37;;
14394;SDS011;7282;49.204;10.652;2023-04-12T14:32:08;5.90;;;4.60;;
14394;SDS011;7282;49.204;10.652;2023-04-12T14:34:34;4.47;;;4.13;;
14394;SDS011;7282;49.204;10.652;2023-04-12T14:37:02;5.13;;;4.63;;
14394;SDS011;7282;49.204;10.652;2023-04-12T14:39:29;4.90;;;4.40;;
14394;SDS011;7282;49.204;10.652;2023-04-12T14:41:56;4.77;;;4.37;;
14394;SDS011;7282;49.204;10.652;2023-04-12T14:44:23;4.43;;;4.03;;
14394;SDS011;7282;49.204;10.652;2023-04-12T14:46:49;4.47;;;4.17;;
14394;SDS011;7282;49.204;10.652;2023-04-12T14:49:16;4.63;;;4.23;;
14394;SDS011;7282;49.204;10.652;2023-04-12T14:51:43;5.67;;;5.03;;
14394;SDS011;7282;49.204;10.652;2023-04-12T14:54:10;5.97;;;5.37;;
14394;SDS011;7282;49.204;10.652;2023-04-12T14:56:37;5.83;;;5.10;;
14394;SDS011;7282;49.204;10.652;2023-04-12T14:59:04;5.10;;;4.60;;
14394;SDS011;7282;49.204;10.652;2023-04-12T15:01:31;6.03;;;5.33;;